sensor_id;sensor_type;location;lat;lon;timestamp;pressure;altitude;pressure_sealevel;temperature;humidity
13029;BME280;6581;42.662;23.402;2022-08-21T00:01:32;94802.34;;;19.21;100.00
13029;BME280;6581;42.662;23.402;2022-08-21T00:04:04;94796.97;;;19.21;100.00
13029;BME280;6581;42.662;23.402;2022-08-21T00:06:32;94790.19;;;19.17;100.00
13029;BME280;6581;42.662;23.402;2022-08-21T00:09:04;94780.63;;;19.16;100.00
13029;BME280;6581;42.662;23.402;2022-08-21T00:11:32;94775.06;;;19.23;100.00
13029;BME280;6581;42.662;23.402;2022-08-21T00:13:59;94780.03;;;19.24;100.00
13029;BME280;6581;42.662;23.402;2022-08-21T00:16:26;94790.00;;;19.24;100.00
13029;BME280;6581;42.662;23.402;2022-08-21T00:18:54;94784.19;;;19.25;100.00
13029;BME280;6581;42.662;23.402;2022-08-21T00:21:24;94782.50;;;19.31;100.00
13029;BME280;6581;42.662;23.402;2022-08-21T00:23:52;94777.66;;;19.26;100.00
13029;BME280;6581;42.662;23.402;2022-08-21T00:26:20;94770.47;;;19.23;100.00
13029;BME280;6581;42.662;23.402;2022-08-21T00:28:48;94766.50;;;19.28;100.00
13029;BME280;6581;42.662;23.402;2022-08-21T00:31:16;94778.50;;;19.23;100.00
13029;BME280;6581;42.662;23.402;2022-08-21T00:33:45;94764.19;;;19.14;100.00
13029;BME280;6581;42.662;23.402;2022-08-21T00:36:12;94768.09;;;18.96;100.00
13029;BME280;6581;42.662;23.402;2022-08-21T00:38:40;94765.44;;;18.80;100.00
13029;BME280;6581;42.662;23.402;2022-08-21T00:41:09;94770.19;;;18.89;100.00
13029;BME280;6581;42.662;23.402;2022-08-21T00:43:39;94768.09;;;18.96;100.00
13029;BME280;6581;42.662;23.402;2022-08-21T00:46:07;94779.06;;;19.02;100.00
13029;BME280;6581;42.662;23.402;2022-08-21T00:48:38;94785.13;;;19.06;100.00
13029;BME280;6581;42.662;23.402;2022-08-21T00:51:10;94780.91;;;19.05;100.00
13029;BME280;6581;42.662;23.402;2022-08-21T00:53:42;94782.75;;;19.08;100.00
13029;BME280;6581;42.662;23.402;2022-08-21T00:56:11;94784.91;;;19.13;100.00
13029;BME280;6581;42.662;23.402;2022-08-21T00:58:41;94772.09;;;19.04;100.00
13029;BME280;6581;42.662;23.402;2022-08-21T01:01:09;94768.81;;;19.13;100.00
13029;BME280;6581;42.662;23.402;2022-08-21T01:03:37;94771.97;;;19.24;100.00
13029;BME280;6581;42.662;23.402;2022-08-21T01:06:06;94764.13;;;19.30;100.00
13029;BME280;6581;42.662;23.402;2022-08-21T01:08:34;94763.47;;;19.26;100.00
13029;BME280;6581;42.662;23.402;2022-08-21T01:11:02;94757.47;;;19.34;100.00
13029;BME280;6581;42.662;23.402;2022-08-21T01:13:32;94754.78;;;19.34;100.00
13029;BME280;6581;42.662;23.402;2022-08-21T01:16:08;94764.38;;;19.35;100.00
13029;BME280;6581;42.662;23.402;2022-08-21T01:18:36;94759.50;;;19.30;100.00
13029;BME280;6581;42.662;23.402;2022-08-21T01:21:08;94762.13;;;19.34;100.00
13029;BME280;6581;42.662;23.402;2022-08-21T01:23:37;94761.69;;;19.35;100.00
13029;BME280;6581;42.662;23.402;2022-08-21T01:26:06;94753.50;;;19.39;100.00
13029;BME280;6581;42.662;23.402;2022-08-21T01:28:38;94751.94;;;19.41;100.00
13029;BME280;6581;42.662;23.402;2022-08-21T01:31:33;94754.94;;;19.43;100.00
13029;BME280;6581;42.662;23.402;2022-08-21T01:34:01;94743.69;;;19.48;100.00
13029;BME280;6581;42.662;23.402;2022-08-21T01:36:30;94752.09;;;19.51;100.00
13029;BME280;6581;42.662;23.402;2022-08-21T01:38:58;94753.38;;;19.46;100.00
13029;BME280;6581;42.662;23.402;2022-08-21T01:41:25;94754.44;;;19.48;100.00
13029;BME280;6581;42.662;23.402;2022-08-21T01:43:52;94761.06;;;19.44;100.00
13029;BME280;6581;42.662;23.402;2022-08-21T01:46:20;94763.75;;;19.44;100.00
13029;BME280;6581;42.662;23.402;2022-08-21T01:48:48;94764.94;;;19.43;100.00
13029;BME280;6581;42.662;23.402;2022-08-21T01:51:15;94764.41;;;19.48;100.00
13029;BME280;6581;42.662;23.402;2022-08-21T01:53:44;94759.91;;;19.45;100.00
13029;BME280;6581;42.662;23.402;2022-08-21T01:56:15;94765.81;;;19.53;100.00
13029;BME280;6581;42.662;23.402;2022-08-21T01:58:45;94767.09;;;19.48;100.00
13029;BME280;6581;42.662;23.402;2022-08-21T02:01:13;94770.72;;;19.41;100.00
13029;BME280;6581;42.662;23.402;2022-08-21T02:03:41;94765.69;;;19.43;100.00
13029;BME280;6581;42.662;23.402;2022-08-21T02:06:12;94761.50;;;19.42;100.00
13029;BME280;6581;42.662;23.402;2022-08-21T02:08:41;94766.44;;;19.44;100.00
13029;BME280;6581;42.662;23.402;2022-08-21T02:11:10;94768.03;;;19.41;100.00
13029;BME280;6581;42.662;23.402;2022-08-21T02:13:37;94775.25;;;19.44;100.00
13029;BME280;6581;42.662;23.402;2022-08-21T02:16:05;94779.66;;;19.38;100.00
13029;BME280;6581;42.662;23.402;2022-08-21T02:18:33;94783.38;;;19.28;100.00
13029;BME280;6581;42.662;23.402;2022-08-21T02:21:01;94783.88;;;19.23;100.00
13029;BME280;6581;42.662;23.402;2022-08-21T02:23:28;94782.72;;;19.24;100.00
13029;BME280;6581;42.662;23.402;2022-08-21T02:25:57;94777.00;;;19.22;100.00
13029;BME280;6581;42.662;23.402;2022-08-21T02:28:26;94783.13;;;19.23;100.00
13029;BME280;6581;42.662;23.402;2022-08-21T02:30:55;94784.91;;;19.13;100.00
13029;BME280;6581;42.662;23.402;2022-08-21T02:33:23;94794.03;;;19.16;100.00
13029;BME280;6581;42.662;23.402;2022-08-21T02:35:51;94786.84;;;19.13;100.00
13029;BME280;6581;42.662;23.402;2022-08-21T02:38:21;94787.69;;;19.10;100.00
13029;BME280;6581;42.662;23.402;2022-08-21T02:40:50;94779.13;;;19.15;100.00
13029;BME280;6581;42.662;23.402;2022-08-21T02:43:18;94782.13;;;19.17;100.00
13029;BME280;6581;42.662;23.402;2022-08-21T02:45:48;94782.03;;;19.20;100.00
13029;BME280;6581;42.662;23.402;2022-08-21T02:48:17;94777.84;;;19.19;100.00
13029;BME280;6581;42.662;23.402;2022-08-21T02:50:48;94777.22;;;19.15;100.00
13029;BME280;6581;42.662;23.402;2022-08-21T02:53:18;94777.22;;;19.15;100.00
13029;BME280;6581;42.662;23.402;2022-08-21T02:55:47;94780.47;;;19.07;100.00
13029;BME280;6581;42.662;23.402;2022-08-21T02:58:16;94786.09;;;19.12;100.00
13029;BME280;6581;42.662;23.402;2022-08-21T03:00:46;94782.22;;;19.13;100.00
13029;BME280;6581;42.662;23.402;2022-08-21T03:03:14;94790.09;;;19.20;100.00
13029;BME280;6581;42.662;23.402;2022-08-21T03:05:42;94783.66;;;19.18;100.00
13029;BME280;6581;42.662;23.402;2022-08-21T03:08:12;94781.31;;;19.20;100.00
13029;BME280;6581;42.662;23.402;2022-08-21T03:10:43;94779.97;;;19.12;100.00
13029;BME280;6581;42.662;23.402;2022-08-21T03:13:12;94783.75;;;19.14;100.00
13029;BME280;6581;42.662;23.402;2022-08-21T03:15:39;94795.03;;;19.22;100.00
13029;BME280;6581;42.662;23.402;2022-08-21T03:18:08;94787.59;;;19.13;100.00
13029;BME280;6581;42.662;23.402;2022-08-21T03:20:37;94774.28;;;19.10;100.00
13029;BME280;6581;42.662;23.402;2022-08-21T03:23:05;94783.50;;;19.09;100.00
13029;BME280;6581;42.662;23.402;2022-08-21T03:25:34;94786.19;;;19.09;100.00
13029;BME280;6581;42.662;23.402;2022-08-21T03:28:03;94782.22;;;19.13;100.00
13029;BME280;6581;42.662;23.402;2022-08-21T03:30:31;94793.31;;;19.15;100.00
13029;BME280;6581;42.662;23.402;2022-08-21T03:33:00;94790.19;;;19.17;100.00
13029;BME280;6581;42.662;23.402;2022-08-21T03:35:59;94795.44;;;19.20;100.00
13029;BME280;6581;42.662;23.402;2022-08-21T03:38:28;94794.03;;;19.16;100.00
13029;BME280;6581;42.662;23.402;2022-08-21T03:40:56;94797.44;;;19.03;100.00
13029;BME280;6581;42.662;23.402;2022-08-21T03:43:23;94801.59;;;18.92;100.00
13029;BME280;6581;42.662;23.402;2022-08-21T03:46:15;94798.59;;;18.74;100.00
13029;BME280;6581;42.662;23.402;2022-08-21T03:48:43;94791.19;;;18.62;100.00
13029;BME280;6581;42.662;23.402;2022-08-21T03:51:11;94791.28;;;18.58;100.00
13029;BME280;6581;42.662;23.402;2022-08-21T03:53:39;94787.75;;;18.61;100.00
13029;BME280;6581;42.662;23.402;2022-08-21T03:56:06;94783.00;;;18.69;100.00
13029;BME280;6581;42.662;23.402;2022-08-21T03:58:34;94790.09;;;18.75;100.00
13029;BME280;6581;42.662;23.402;2022-08-21T04:01:02;94793.13;;;18.77;100.00
13029;BME280;6581;42.662;23.402;2022-08-21T04:03:30;94794.13;;;18.83;100.00
13029;BME280;6581;42.662;23.402;2022-08-21T04:05:57;94795.41;;;18.79;100.00
13029;BME280;6581;42.662;23.402;2022-08-21T04:08:26;94806.44;;;18.81;100.00
13029;BME280;6581;42.662;23.402;2022-08-21T04:10:55;94808.97;;;18.72;100.00
13029;BME280;6581;42.662;23.402;2022-08-21T04:13:24;94802.94;;;18.68;100.00
13029;BME280;6581;42.662;23.402;2022-08-21T04:15:52;94804.47;;;18.69;100.00
13029;BME280;6581;42.662;23.402;2022-08-21T04:18:20;94803.19;;;18.73;100.00
13029;BME280;6581;42.662;23.402;2022-08-21T04:20:50;94796.97;;;18.76;100.00
13029;BME280;6581;42.662;23.402;2022-08-21T04:23:19;94797.59;;;18.68;100.00
13029;BME280;6581;42.662;23.402;2022-08-21T04:26:13;94795.97;;;18.70;100.00
13029;BME280;6581;42.662;23.402;2022-08-21T04:28:41;94796.56;;;18.78;100.00
13029;BME280;6581;42.662;23.402;2022-08-21T04:31:09;94803.88;;;18.77;100.00
13029;BME280;6581;42.662;23.402;2022-08-21T04:33:36;94799.16;;;18.81;100.00
13029;BME280;6581;42.662;23.402;2022-08-21T04:36:04;94797.66;;;18.80;100.00
13029;BME280;6581;42.662;23.402;2022-08-21T04:38:32;94793.03;;;18.81;100.00
13029;BME280;6581;42.662;23.402;2022-08-21T04:40:59;94790.84;;;18.92;100.00
13029;BME280;6581;42.662;23.402;2022-08-21T04:43:28;94787.81;;;18.90;100.00
13029;BME280;6581;42.662;23.402;2022-08-21T04:45:56;94795.59;;;19.00;100.00
13029;BME280;6581;42.662;23.402;2022-08-21T04:48:23;94800.53;;;19.02;100.00
13029;BME280;6581;42.662;23.402;2022-08-21T04:50:55;94793.16;;;19.06;100.00
13029;BME280;6581;42.662;23.402;2022-08-21T04:53:29;94795.09;;;19.06;100.00
13029;BME280;6581;42.662;23.402;2022-08-21T04:56:01;94804.31;;;19.04;100.00
13029;BME280;6581;42.662;23.402;2022-08-21T04:58:31;94797.25;;;19.11;100.00
13029;BME280;6581;42.662;23.402;2022-08-21T05:01:00;94798.34;;;19.13;100.00
13029;BME280;6581;42.662;23.402;2022-08-21T05:03:29;94796.31;;;19.17;100.00
13029;BME280;6581;42.662;23.402;2022-08-21T05:05:57;94796.94;;;19.09;100.00
13029;BME280;6581;42.662;23.402;2022-08-21T05:08:27;94791.81;;;19.14;100.00
13029;BME280;6581;42.662;23.402;2022-08-21T05:10:55;94796.91;;;19.25;100.00
13029;BME280;6581;42.662;23.402;2022-08-21T05:13:24;94787.22;;;19.27;100.00
13029;BME280;6581;42.662;23.402;2022-08-21T05:15:53;94798.34;;;19.42;100.00
13029;BME280;6581;42.662;23.402;2022-08-21T05:18:20;94793.03;;;19.55;100.00
13029;BME280;6581;42.662;23.402;2022-08-21T05:20:48;94801.34;;;19.73;100.00
13029;BME280;6581;42.662;23.402;2022-08-21T05:23:16;94802.88;;;19.99;100.00
13029;BME280;6581;42.662;23.402;2022-08-21T05:25:43;94786.31;;;20.13;100.00
13029;BME280;6581;42.662;23.402;2022-08-21T05:28:11;94787.41;;;20.28;100.00
13029;BME280;6581;42.662;23.402;2022-08-21T05:30:39;94797.94;;;20.35;100.00
13029;BME280;6581;42.662;23.402;2022-08-21T05:33:07;94797.22;;;20.48;100.00
13029;BME280;6581;42.662;23.402;2022-08-21T05:35:36;94803.09;;;20.55;100.00
13029;BME280;6581;42.662;23.402;2022-08-21T05:38:05;94795.91;;;20.52;100.00
13029;BME280;6581;42.662;23.402;2022-08-21T05:40:32;94795.91;;;20.52;100.00
13029;BME280;6581;42.662;23.402;2022-08-21T05:43:00;94795.47;;;20.54;100.00
13029;BME280;6581;42.662;23.402;2022-08-21T05:45:29;94791.81;;;20.35;100.00
13029;BME280;6581;42.662;23.402;2022-08-21T05:47:57;94784.41;;;20.39;100.00
13029;BME280;6581;42.662;23.402;2022-08-21T05:50:25;94779.75;;;20.40;100.00
13029;BME280;6581;42.662;23.402;2022-08-21T05:52:52;94776.75;;;20.38;100.00
13029;BME280;6581;42.662;23.402;2022-08-21T05:55:20;94782.53;;;20.61;100.00
13029;BME280;6581;42.662;23.402;2022-08-21T05:57:47;94777.34;;;20.79;100.00
13029;BME280;6581;42.662;23.402;2022-08-21T06:00:40;94780.53;;;20.87;100.00
13029;BME280;6581;42.662;23.402;2022-08-21T06:03:11;94783.09;;;20.91;100.00
13029;BME280;6581;42.662;23.402;2022-08-21T06:05:39;94786.97;;;21.02;100.00
13029;BME280;6581;42.662;23.402;2022-08-21T06:08:07;94789.63;;;21.15;100.00
13029;BME280;6581;42.662;23.402;2022-08-21T06:10:34;94790.38;;;21.15;100.00
13029;BME280;6581;42.662;23.402;2022-08-21T06:13:01;94788.94;;;21.23;100.00
13029;BME280;6581;42.662;23.402;2022-08-21T06:15:29;94788.19;;;21.45;100.00
13029;BME280;6581;42.662;23.402;2022-08-21T06:17:56;94779.66;;;21.46;100.00
13029;BME280;6581;42.662;23.402;2022-08-21T06:20:24;94775.72;;;21.38;100.00
13029;BME280;6581;42.662;23.402;2022-08-21T06:22:53;94786.50;;;21.38;100.00
13029;BME280;6581;42.662;23.402;2022-08-21T06:25:20;94788.75;;;21.18;100.00
13029;BME280;6581;42.662;23.402;2022-08-21T06:27:49;94786.56;;;21.26;100.00
13029;BME280;6581;42.662;23.402;2022-08-21T06:30:17;94790.81;;;21.36;100.00
13029;BME280;6581;42.662;23.402;2022-08-21T06:32:44;94781.94;;;21.48;100.00
13029;BME280;6581;42.662;23.402;2022-08-21T06:35:12;94786.81;;;21.62;100.00
13029;BME280;6581;42.662;23.402;2022-08-21T06:37:39;94780.66;;;21.61;100.00
13029;BME280;6581;42.662;23.402;2022-08-21T06:40:09;94789.75;;;21.55;100.00
13029;BME280;6581;42.662;23.402;2022-08-21T06:42:36;94787.56;;;21.41;100.00
13029;BME280;6581;42.662;23.402;2022-08-21T06:45:05;94783.59;;;21.54;100.00
13029;BME280;6581;42.662;23.402;2022-08-21T06:47:56;94790.28;;;21.62;100.00
13029;BME280;6581;42.662;23.402;2022-08-21T06:50:23;94795.81;;;21.68;100.00
13029;BME280;6581;42.662;23.402;2022-08-21T06:52:58;94798.41;;;21.72;100.00
13029;BME280;6581;42.662;23.402;2022-08-21T06:55:27;94799.59;;;21.71;100.00
13029;BME280;6581;42.662;23.402;2022-08-21T06:57:55;94807.06;;;21.66;100.00
13029;BME280;6581;42.662;23.402;2022-08-21T07:00:49;94804.38;;;21.66;100.00
13029;BME280;6581;42.662;23.402;2022-08-21T07:03:19;94807.25;;;21.50;100.00
13029;BME280;6581;42.662;23.402;2022-08-21T07:05:47;94790.44;;;21.46;100.00
13029;BME280;6581;42.662;23.402;2022-08-21T07:08:14;94803.22;;;21.55;100.00
13029;BME280;6581;42.662;23.402;2022-08-21T07:10:44;94793.25;;;21.64;100.00
13029;BME280;6581;42.662;23.402;2022-08-21T07:13:11;94799.28;;;21.68;100.00
13029;BME280;6581;42.662;23.402;2022-08-21T07:15:39;94797.78;;;21.67;100.00
13029;BME280;6581;42.662;23.402;2022-08-21T07:18:06;94797.25;;;21.82;100.00
13029;BME280;6581;42.662;23.402;2022-08-21T07:20:34;94794.84;;;22.05;99.87
13029;BME280;6581;42.662;23.402;2022-08-21T07:23:03;94790.47;;;22.30;96.44
13029;BME280;6581;42.662;23.402;2022-08-21T07:25:31;94789.78;;;22.57;94.74
13029;BME280;6581;42.662;23.402;2022-08-21T07:28:00;94795.41;;;22.71;92.15
13029;BME280;6581;42.662;23.402;2022-08-21T07:30:28;94795.56;;;22.77;90.00
13029;BME280;6581;42.662;23.402;2022-08-21T07:32:56;94787.94;;;23.12;91.71
13029;BME280;6581;42.662;23.402;2022-08-21T07:35:23;94788.09;;;23.08;90.95
13029;BME280;6581;42.662;23.402;2022-08-21T07:37:50;94783.75;;;23.47;89.78
13029;BME280;6581;42.662;23.402;2022-08-21T07:40:18;94786.72;;;24.27;85.67
13029;BME280;6581;42.662;23.402;2022-08-21T07:42:47;94780.03;;;24.94;83.87
13029;BME280;6581;42.662;23.402;2022-08-21T07:45:19;94790.31;;;24.57;83.00
13029;BME280;6581;42.662;23.402;2022-08-21T07:47:48;94779.06;;;24.26;82.82
13029;BME280;6581;42.662;23.402;2022-08-21T07:50:15;94773.44;;;24.39;83.13
13029;BME280;6581;42.662;23.402;2022-08-21T07:52:43;94770.47;;;25.76;77.22
13029;BME280;6581;42.662;23.402;2022-08-21T07:55:13;94765.09;;;26.95;73.00
13029;BME280;6581;42.662;23.402;2022-08-21T07:57:41;94770.84;;;27.43;68.25
13029;BME280;6581;42.662;23.402;2022-08-21T08:00:13;94772.31;;;26.63;69.97
13029;BME280;6581;42.662;23.402;2022-08-21T08:02:44;94769.03;;;27.34;69.59
13029;BME280;6581;42.662;23.402;2022-08-21T08:05:16;94765.94;;;26.31;72.07
13029;BME280;6581;42.662;23.402;2022-08-21T08:07:44;94768.47;;;26.70;72.65
13029;BME280;6581;42.662;23.402;2022-08-21T08:10:11;94771.53;;;27.38;70.15
13029;BME280;6581;42.662;23.402;2022-08-21T08:12:40;94778.19;;;26.76;70.86
13029;BME280;6581;42.662;23.402;2022-08-21T08:15:10;94771.31;;;26.11;73.03
13029;BME280;6581;42.662;23.402;2022-08-21T08:17:38;94773.09;;;25.99;75.26
13029;BME280;6581;42.662;23.402;2022-08-21T08:20:08;94764.34;;;25.37;76.87
13029;BME280;6581;42.662;23.402;2022-08-21T08:22:37;94770.03;;;25.24;78.66
13029;BME280;6581;42.662;23.402;2022-08-21T08:25:06;94769.44;;;25.05;77.72
13029;BME280;6581;42.662;23.402;2022-08-21T08:27:34;94771.56;;;25.25;77.34
13029;BME280;6581;42.662;23.402;2022-08-21T08:30:01;94771.47;;;25.34;76.90
13029;BME280;6581;42.662;23.402;2022-08-21T08:32:29;94765.56;;;25.36;77.22
13029;BME280;6581;42.662;23.402;2022-08-21T08:34:56;94767.13;;;25.13;76.23
13029;BME280;6581;42.662;23.402;2022-08-21T08:37:25;94769.09;;;25.27;76.27
13029;BME280;6581;42.662;23.402;2022-08-21T08:39:53;94774.19;;;25.34;75.67
13029;BME280;6581;42.662;23.402;2022-08-21T08:42:25;94771.28;;;25.38;76.11
13029;BME280;6581;42.662;23.402;2022-08-21T08:44:57;94770.25;;;25.50;75.83
13029;BME280;6581;42.662;23.402;2022-08-21T08:47:27;94765.78;;;25.47;75.68
13029;BME280;6581;42.662;23.402;2022-08-21T08:50:01;94768.91;;;25.69;75.30
13029;BME280;6581;42.662;23.402;2022-08-21T08:52:33;94767.09;;;25.51;76.68
13029;BME280;6581;42.662;23.402;2022-08-21T08:55:04;94763.63;;;25.51;76.41
13029;BME280;6581;42.662;23.402;2022-08-21T08:57:33;94765.53;;;25.59;77.29
13029;BME280;6581;42.662;23.402;2022-08-21T09:00:05;94754.75;;;25.50;77.03
13029;BME280;6581;42.662;23.402;2022-08-21T09:02:33;94757.59;;;25.17;76.72
13029;BME280;6581;42.662;23.402;2022-08-21T09:05:00;94756.78;;;24.88;77.79
13029;BME280;6581;42.662;23.402;2022-08-21T09:07:38;94745.63;;;24.86;77.24
13029;BME280;6581;42.662;23.402;2022-08-21T09:10:17;94744.63;;;24.98;77.14
13029;BME280;6581;42.662;23.402;2022-08-21T09:12:52;94747.06;;;25.34;77.23
13029;BME280;6581;42.662;23.402;2022-08-21T09:15:29;94747.44;;;25.42;79.57
13029;BME280;6581;42.662;23.402;2022-08-21T09:18:25;94745.09;;;25.49;76.00
13029;BME280;6581;42.662;23.402;2022-08-21T09:21:01;94743.41;;;25.37;76.94
13029;BME280;6581;42.662;23.402;2022-08-21T09:23:39;94731.38;;;25.38;77.81
13029;BME280;6581;42.662;23.402;2022-08-21T09:26:13;94734.25;;;25.35;76.54
13029;BME280;6581;42.662;23.402;2022-08-21T09:28:42;94732.03;;;25.63;75.79
13029;BME280;6581;42.662;23.402;2022-08-21T09:31:16;94733.44;;;25.73;75.35
13029;BME280;6581;42.662;23.402;2022-08-21T09:33:48;94728.47;;;25.86;75.11
13029;BME280;6581;42.662;23.402;2022-08-21T09:36:24;94735.94;;;26.06;75.32
13029;BME280;6581;42.662;23.402;2022-08-21T09:38:54;94729.88;;;25.81;73.66
13029;BME280;6581;42.662;23.402;2022-08-21T09:41:27;94730.38;;;25.80;77.27
13029;BME280;6581;42.662;23.402;2022-08-21T09:43:55;94736.63;;;25.71;74.33
13029;BME280;6581;42.662;23.402;2022-08-21T09:46:24;94734.19;;;25.73;74.56
13029;BME280;6581;42.662;23.402;2022-08-21T09:48:53;94731.19;;;25.71;74.73
13029;BME280;6581;42.662;23.402;2022-08-21T09:51:24;94726.88;;;25.50;75.80
13029;BME280;6581;42.662;23.402;2022-08-21T09:53:55;94731.94;;;25.42;76.31
13029;BME280;6581;42.662;23.402;2022-08-21T09:56:29;94732.94;;;25.30;76.79
13029;BME280;6581;42.662;23.402;2022-08-21T09:59:24;94731.53;;;25.20;75.94
13029;BME280;6581;42.662;23.402;2022-08-21T10:01:53;94720.97;;;25.22;77.97
13029;BME280;6581;42.662;23.402;2022-08-21T10:04:24;94719.47;;;25.21;78.08
13029;BME280;6581;42.662;23.402;2022-08-21T10:06:51;94716.94;;;25.17;79.29
13029;BME280;6581;42.662;23.402;2022-08-21T10:09:21;94707.56;;;25.04;78.19
13029;BME280;6581;42.662;23.402;2022-08-21T10:11:57;94713.56;;;25.08;78.24
13029;BME280;6581;42.662;23.402;2022-08-21T10:14:37;94702.34;;;25.00;78.11
13029;BME280;6581;42.662;23.402;2022-08-21T10:17:14;94712.06;;;25.07;77.88
13029;BME280;6581;42.662;23.402;2022-08-21T10:19:49;94717.53;;;24.98;79.08
13029;BME280;6581;42.662;23.402;2022-08-21T10:22:27;94704.75;;;24.98;78.27
13029;BME280;6581;42.662;23.402;2022-08-21T10:25:31;94708.59;;;24.92;77.98
13029;BME280;6581;42.662;23.402;2022-08-21T10:28:05;94703.72;;;24.96;78.39
13029;BME280;6581;42.662;23.402;2022-08-21T10:30:46;94706.31;;;24.90;78.24
13029;BME280;6581;42.662;23.402;2022-08-21T10:33:26;94699.81;;;24.97;78.67
13029;BME280;6581;42.662;23.402;2022-08-21T10:36:04;94695.75;;;25.16;78.04
13029;BME280;6581;42.662;23.402;2022-08-21T10:38:49;94698.09;;;25.38;77.26
13029;BME280;6581;42.662;23.402;2022-08-21T10:41:26;94698.09;;;25.52;75.45
13029;BME280;6581;42.662;23.402;2022-08-21T10:44:03;94694.25;;;25.88;75.18
13029;BME280;6581;42.662;23.402;2022-08-21T10:46:47;94688.31;;;26.04;74.07
13029;BME280;6581;42.662;23.402;2022-08-21T10:49:22;94687.50;;;26.19;72.64
13029;BME280;6581;42.662;23.402;2022-08-21T10:51:59;94689.47;;;26.33;71.93
13029;BME280;6581;42.662;23.402;2022-08-21T10:54:35;94676.50;;;26.42;71.08
13029;BME280;6581;42.662;23.402;2022-08-21T10:57:11;94680.78;;;26.69;70.17
13029;BME280;6581;42.662;23.402;2022-08-21T10:59:43;94679.69;;;27.02;70.33
13029;BME280;6581;42.662;23.402;2022-08-21T11:02:17;94680.00;;;27.09;68.83
13029;BME280;6581;42.662;23.402;2022-08-21T11:04:53;94672.44;;;26.93;68.55
13029;BME280;6581;42.662;23.402;2022-08-21T11:07:28;94667.66;;;26.68;68.40
13029;BME280;6581;42.662;23.402;2022-08-21T11:10:01;94654.22;;;26.59;67.21
13029;BME280;6581;42.662;23.402;2022-08-21T11:12:35;94651.19;;;26.51;69.12
13029;BME280;6581;42.662;23.402;2022-08-21T11:15:26;94646.28;;;26.55;69.75
13029;BME280;6581;42.662;23.402;2022-08-21T11:18:00;94648.25;;;26.55;69.31
13029;BME280;6581;42.662;23.402;2022-08-21T11:20:35;94643.50;;;26.50;68.37
13029;BME280;6581;42.662;23.402;2022-08-21T11:23:37;94637.13;;;26.32;68.92
13029;BME280;6581;42.662;23.402;2022-08-21T11:26:08;94634.16;;;26.30;69.58
13029;BME280;6581;42.662;23.402;2022-08-21T11:28:45;94634.88;;;26.31;69.93
13029;BME280;6581;42.662;23.402;2022-08-21T11:31:27;94629.44;;;26.31;69.13
13029;BME280;6581;42.662;23.402;2022-08-21T11:34:10;94642.88;;;26.40;67.75
13029;BME280;6581;42.662;23.402;2022-08-21T11:36:48;94638.88;;;26.15;67.99
13029;BME280;6581;42.662;23.402;2022-08-21T11:39:45;94645.38;;;26.03;67.41
13029;BME280;6581;42.662;23.402;2022-08-21T11:42:22;94635.19;;;25.98;66.92
13029;BME280;6581;42.662;23.402;2022-08-21T11:45:00;94632.19;;;25.96;67.55
13029;BME280;6581;42.662;23.402;2022-08-21T11:47:37;94645.16;;;26.07;67.72
13029;BME280;6581;42.662;23.402;2022-08-21T11:50:15;94636.00;;;25.69;67.42
13029;BME280;6581;42.662;23.402;2022-08-21T11:52:45;94640.66;;;25.83;68.49
13029;BME280;6581;42.662;23.402;2022-08-21T11:55:18;94637.22;;;26.03;68.35
13029;BME280;6581;42.662;23.402;2022-08-21T11:57:50;94632.88;;;26.26;67.72
13029;BME280;6581;42.662;23.402;2022-08-21T12:00:25;94628.09;;;26.41;65.17
13029;BME280;6581;42.662;23.402;2022-08-21T12:03:22;94628.69;;;26.71;64.92
13029;BME280;6581;42.662;23.402;2022-08-21T12:05:54;94631.47;;;26.76;65.24
13029;BME280;6581;42.662;23.402;2022-08-21T12:08:31;94623.00;;;26.89;64.42
13029;BME280;6581;42.662;23.402;2022-08-21T12:11:24;94615.31;;;26.87;64.00
13029;BME280;6581;42.662;23.402;2022-08-21T12:13:56;94612.34;;;26.85;63.81
13029;BME280;6581;42.662;23.402;2022-08-21T12:16:31;94618.03;;;26.87;63.42
13029;BME280;6581;42.662;23.402;2022-08-21T12:19:04;94614.47;;;26.81;63.09
13029;BME280;6581;42.662;23.402;2022-08-21T12:21:31;94614.97;;;26.80;63.72
13029;BME280;6581;42.662;23.402;2022-08-21T12:24:02;94623.88;;;26.60;65.25
13029;BME280;6581;42.662;23.402;2022-08-21T12:26:33;94623.19;;;26.45;65.46
13029;BME280;6581;42.662;23.402;2022-08-21T12:29:15;94622.81;;;26.32;66.35
13029;BME280;6581;42.662;23.402;2022-08-21T12:31:54;94629.53;;;26.36;66.48
13029;BME280;6581;42.662;23.402;2022-08-21T12:34:23;94622.53;;;26.30;66.78
13029;BME280;6581;42.662;23.402;2022-08-21T12:37:00;94635.63;;;26.31;66.82
13029;BME280;6581;42.662;23.402;2022-08-21T12:39:31;94626.75;;;26.31;67.09
13029;BME280;6581;42.662;23.402;2022-08-21T12:42:05;94627.22;;;26.29;66.69
13029;BME280;6581;42.662;23.402;2022-08-21T12:44:38;94619.63;;;26.33;66.66
13029;BME280;6581;42.662;23.402;2022-08-21T12:47:14;94619.34;;;26.31;66.58
13029;BME280;6581;42.662;23.402;2022-08-21T12:49:54;94613.06;;;26.05;67.83
13029;BME280;6581;42.662;23.402;2022-08-21T12:52:29;94612.38;;;26.10;67.57
13029;BME280;6581;42.662;23.402;2022-08-21T12:54:57;94613.88;;;26.11;67.31
13029;BME280;6581;42.662;23.402;2022-08-21T12:57:26;94609.13;;;26.06;68.16
13029;BME280;6581;42.662;23.402;2022-08-21T12:59:56;94609.22;;;26.12;68.11
13029;BME280;6581;42.662;23.402;2022-08-21T13:02:28;94601.41;;;26.19;69.18
13029;BME280;6581;42.662;23.402;2022-08-21T13:04:57;94603.56;;;26.15;70.64
13029;BME280;6581;42.662;23.402;2022-08-21T13:07:29;94603.72;;;26.06;69.02
13029;BME280;6581;42.662;23.402;2022-08-21T13:10:00;94603.41;;;26.04;70.34
13029;BME280;6581;42.662;23.402;2022-08-21T13:12:29;94603.91;;;26.02;70.68
13029;BME280;6581;42.662;23.402;2022-08-21T13:14:58;94600.16;;;26.00;71.22
13029;BME280;6581;42.662;23.402;2022-08-21T13:17:31;94606.25;;;25.95;72.30